الصفحة الرئيسية
METAR-TAF:

METAR-TAF

مطار :

Koumac, نيو كاليدونيا

دائرة عرض: 20-34S, خط طول: 164-17E, ارتفاع: 23 متر

METAR: مفقودة

زمن: 20:35 (09:35 UTC)

توقعات

تاريخ ووقت الإصدار 18 دقيقة قبل الساعة 09:17UTC
التوقعات صالحة من26 الساعة 09 UTC إلى 27 الساعة 06 UTC
ريح 2 عقدةمن اتجاهات متغيرة
الرؤية 10 كم أو أكثر
غيوم قليلة على ارتفاع 4000 قدم
أصبح
من 26 الساعة 22 UTC إلى 26 الساعة 24 UTC
ريح 12 عقدة من الجنوب
نظرية الاحتمالات 30% :
مؤقت
من 27 الساعة 01 UTC إلى 27 الساعة 05 UTC
غيوم قليلة على ارتفاع 2500 قدم, مزن ركامية عمودية.
زخات من المطر

TAF: NWWK 260917Z 2609/2706 VRB02KT 9999 FEW040 BECMG 2622/2624 19012KT PROB30 TEMPO 2701/2705 SHRA FEW025TCU

أرصاد الطقس والتوقعات من أكثر من 4000 مطار (تقارير الطقس للمطار METAR والتنبؤ بالطقس بالمطارTAF).

المحطات المتاحة هي النقط الصفراء والحمراء على الخريطة.

حرك المؤشر فوق النقطة لمعرفة اسم المحطة.

ثم انقر لمعرفة أرصاد وتوقعات الطقس.

لتغيير الخارطة: اضغط على الأزرار الخضراء مع رمز الصليب الأسود للتكبير. على الزر الأخضر مع شرطة للتصغير، أو على الأسهم الخضراء للخرائط المجاورة.


METAR-TAF: